sensor_id;sensor_type;location;lat;lon;timestamp;noise_LAeq;noise_LA_min;noise_LA_max;noise_LA01;noise_LA95
68599;Laerm;18038;50.166;18.908;2023-09-19T00:01:40;36.96;33.69;49.56;;
68599;Laerm;18038;50.166;18.908;2023-09-19T00:04:51;39.00;33.25;54.09;;
68599;Laerm;18038;50.166;18.908;2023-09-19T00:08:06;36.28;33.24;42.49;;
68599;Laerm;18038;50.166;18.908;2023-09-19T00:11:29;39.61;33.77;55.83;;
68599;Laerm;18038;50.166;18.908;2023-09-19T00:14:39;39.06;33.55;54.25;;
68599;Laerm;18038;50.166;18.908;2023-09-19T00:17:52;38.90;34.02;53.21;;
68599;Laerm;18038;50.166;18.908;2023-09-19T00:21:00;38.38;34.75;49.27;;
68599;Laerm;18038;50.166;18.908;2023-09-19T00:24:10;41.80;34.38;55.13;;
68599;Laerm;18038;50.166;18.908;2023-09-19T00:27:17;40.95;33.91;53.15;;
68599;Laerm;18038;50.166;18.908;2023-09-19T00:30:28;36.62;33.35;44.63;;
68599;Laerm;18038;50.166;18.908;2023-09-19T00:33:35;35.67;33.52;43.57;;
68599;Laerm;18038;50.166;18.908;2023-09-19T00:36:43;38.10;33.34;52.27;;
68599;Laerm;18038;50.166;18.908;2023-09-19T00:39:51;36.37;33.32;46.35;;
68599;Laerm;18038;50.166;18.908;2023-09-19T00:42:59;39.15;33.60;52.54;;
68599;Laerm;18038;50.166;18.908;2023-09-19T00:46:10;41.98;34.02;53.40;;
68599;Laerm;18038;50.166;18.908;2023-09-19T00:49:27;40.69;33.56;52.59;;
68599;Laerm;18038;50.166;18.908;2023-09-19T00:52:42;41.25;33.22;57.32;;
68599;Laerm;18038;50.166;18.908;2023-09-19T00:55:51;34.75;33.06;48.21;;
68599;Laerm;18038;50.166;18.908;2023-09-19T00:59:00;37.28;33.74;46.95;;
68599;Laerm;18038;50.166;18.908;2023-09-19T01:02:12;36.26;33.75;43.53;;
68599;Laerm;18038;50.166;18.908;2023-09-19T01:05:20;35.68;33.29;46.77;;
68599;Laerm;18038;50.166;18.908;2023-09-19T01:08:29;36.01;33.22;47.62;;
68599;Laerm;18038;50.166;18.908;2023-09-19T01:11:46;39.57;34.41;49.20;;
68599;Laerm;18038;50.166;18.908;2023-09-19T01:15:06;37.95;33.44;53.81;;
68599;Laerm;18038;50.166;18.908;2023-09-19T01:18:43;48.00;34.25;58.37;;
68599;Laerm;18038;50.166;18.908;2023-09-19T01:22:06;50.21;32.91;72.45;;
68599;Laerm;18038;50.166;18.908;2023-09-19T01:25:50;38.15;34.62;41.35;;
68599;Laerm;18038;50.166;18.908;2023-09-19T01:29:31;38.08;34.10;41.07;;
68599;Laerm;18038;50.166;18.908;2023-09-19T01:32:53;37.94;34.92;39.14;;
68599;Laerm;18038;50.166;18.908;2023-09-19T01:36:03;37.94;34.50;42.65;;
68599;Laerm;18038;50.166;18.908;2023-09-19T01:39:15;37.30;33.32;38.49;;
68599;Laerm;18038;50.166;18.908;2023-09-19T01:42:42;35.68;32.60;48.47;;
68599;Laerm;18038;50.166;18.908;2023-09-19T01:46:04;79.10;32.42;83.77;;
68599;Laerm;18038;50.166;18.908;2023-09-19T01:49:39;77.70;72.09;83.24;;
68599;Laerm;18038;50.166;18.908;2023-09-19T01:53:05;72.65;66.70;77.30;;
68599;Laerm;18038;50.166;18.908;2023-09-19T01:56:29;68.23;63.66;73.36;;
68599;Laerm;18038;50.166;18.908;2023-09-19T01:59:50;64.82;61.32;67.50;;
68599;Laerm;18038;50.166;18.908;2023-09-19T02:03:03;62.73;59.82;66.02;;
68599;Laerm;18038;50.166;18.908;2023-09-19T02:06:17;61.07;57.72;63.01;;
68599;Laerm;18038;50.166;18.908;2023-09-19T02:09:26;59.46;56.57;61.91;;
68599;Laerm;18038;50.166;18.908;2023-09-19T02:12:34;57.81;54.56;60.65;;
68599;Laerm;18038;50.166;18.908;2023-09-19T02:15:43;56.21;52.75;59.11;;
68599;Laerm;18038;50.166;18.908;2023-09-19T02:18:51;55.18;51.56;57.15;;
68599;Laerm;18038;50.166;18.908;2023-09-19T02:22:02;53.94;49.47;56.07;;
68599;Laerm;18038;50.166;18.908;2023-09-19T02:25:12;53.54;49.90;55.53;;
68599;Laerm;18038;50.166;18.908;2023-09-19T02:28:30;52.89;48.85;55.21;;
68599;Laerm;18038;50.166;18.908;2023-09-19T02:31:38;52.38;49.01;54.99;;
68599;Laerm;18038;50.166;18.908;2023-09-19T02:34:47;52.32;48.85;54.33;;
68599;Laerm;18038;50.166;18.908;2023-09-19T02:38:01;51.78;47.27;54.39;;
68599;Laerm;18038;50.166;18.908;2023-09-19T02:41:11;50.86;46.04;53.01;;
68599;Laerm;18038;50.166;18.908;2023-09-19T02:44:18;50.58;46.37;53.78;;
68599;Laerm;18038;50.166;18.908;2023-09-19T02:47:35;50.11;45.70;52.66;;
68599;Laerm;18038;50.166;18.908;2023-09-19T02:50:43;50.05;46.49;52.57;;
68599;Laerm;18038;50.166;18.908;2023-09-19T02:53:54;50.06;45.41;52.34;;
68599;Laerm;18038;50.166;18.908;2023-09-19T02:57:02;50.03;46.11;52.33;;
68599;Laerm;18038;50.166;18.908;2023-09-19T03:00:13;50.08;46.39;52.82;;
68599;Laerm;18038;50.166;18.908;2023-09-19T03:03:21;51.43;46.53;53.90;;
68599;Laerm;18038;50.166;18.908;2023-09-19T03:06:29;51.73;47.93;54.64;;
68599;Laerm;18038;50.166;18.908;2023-09-19T03:09:40;53.33;48.77;56.32;;
68599;Laerm;18038;50.166;18.908;2023-09-19T03:12:55;55.25;50.51;57.94;;
68599;Laerm;18038;50.166;18.908;2023-09-19T03:16:07;58.22;52.81;61.16;;
68599;Laerm;18038;50.166;18.908;2023-09-19T03:19:15;60.44;57.35;63.11;;
68599;Laerm;18038;50.166;18.908;2023-09-19T03:22:32;60.94;58.14;63.46;;
68599;Laerm;18038;50.166;18.908;2023-09-19T03:25:57;64.45;60.23;67.73;;
68599;Laerm;18038;50.166;18.908;2023-09-19T03:29:09;73.30;65.63;80.51;;
68599;Laerm;18038;50.166;18.908;2023-09-19T03:32:19;73.89;32.84;84.22;;
68599;Laerm;18038;50.166;18.908;2023-09-19T03:35:28;38.75;35.78;41.73;;
68599;Laerm;18038;50.166;18.908;2023-09-19T03:38:36;38.28;32.91;42.42;;
68599;Laerm;18038;50.166;18.908;2023-09-19T03:41:46;62.53;32.42;82.33;;
68599;Laerm;18038;50.166;18.908;2023-09-19T03:44:54;50.81;32.92;78.54;;
68599;Laerm;18038;50.166;18.908;2023-09-19T03:48:08;38.16;33.19;42.67;;
68599;Laerm;18038;50.166;18.908;2023-09-19T03:51:16;60.92;32.93;80.59;;
68599;Laerm;18038;50.166;18.908;2023-09-19T03:54:24;38.89;37.15;42.05;;
68599;Laerm;18038;50.166;18.908;2023-09-19T03:57:37;38.44;36.27;41.03;;
68599;Laerm;18038;50.166;18.908;2023-09-19T04:00:46;38.51;35.20;41.07;;
68599;Laerm;18038;50.166;18.908;2023-09-19T04:03:54;38.72;36.00;41.77;;
68599;Laerm;18038;50.166;18.908;2023-09-19T04:07:02;38.71;35.85;43.94;;
68599;Laerm;18038;50.166;18.908;2023-09-19T04:10:10;38.61;34.34;41.64;;
68599;Laerm;18038;50.166;18.908;2023-09-19T04:13:21;38.64;35.75;50.55;;
68599;Laerm;18038;50.166;18.908;2023-09-19T04:16:29;38.87;36.44;43.71;;
68599;Laerm;18038;50.166;18.908;2023-09-19T04:19:37;39.06;35.91;41.83;;
68599;Laerm;18038;50.166;18.908;2023-09-19T04:22:47;38.67;35.12;41.37;;
68599;Laerm;18038;50.166;18.908;2023-09-19T04:25:54;38.84;34.93;44.64;;
68599;Laerm;18038;50.166;18.908;2023-09-19T04:29:05;38.38;34.86;42.02;;
68599;Laerm;18038;50.166;18.908;2023-09-19T04:32:15;38.71;34.52;41.61;;
68599;Laerm;18038;50.166;18.908;2023-09-19T04:35:23;38.36;33.42;42.07;;
68599;Laerm;18038;50.166;18.908;2023-09-19T04:38:31;38.30;33.23;43.17;;
68599;Laerm;18038;50.166;18.908;2023-09-19T04:41:47;38.27;33.49;46.75;;
68599;Laerm;18038;50.166;18.908;2023-09-19T04:44:59;39.18;33.75;43.56;;
68599;Laerm;18038;50.166;18.908;2023-09-19T04:48:09;39.63;34.81;47.09;;
68599;Laerm;18038;50.166;18.908;2023-09-19T04:51:24;40.24;35.56;43.57;;
68599;Laerm;18038;50.166;18.908;2023-09-19T04:54:36;40.61;35.69;44.38;;
68599;Laerm;18038;50.166;18.908;2023-09-19T04:57:48;40.02;35.28;44.88;;
68599;Laerm;18038;50.166;18.908;2023-09-19T05:01:00;39.46;34.45;47.15;;
68599;Laerm;18038;50.166;18.908;2023-09-19T05:04:09;40.28;35.97;43.70;;
68599;Laerm;18038;50.166;18.908;2023-09-19T05:07:17;40.51;36.89;43.16;;
68599;Laerm;18038;50.166;18.908;2023-09-19T05:10:26;40.34;35.82;43.82;;
68599;Laerm;18038;50.166;18.908;2023-09-19T05:13:34;39.98;35.86;43.02;;
68599;Laerm;18038;50.166;18.908;2023-09-19T05:16:45;39.71;36.31;44.18;;
68599;Laerm;18038;50.166;18.908;2023-09-19T05:19:53;39.90;36.30;43.02;;
68599;Laerm;18038;50.166;18.908;2023-09-19T05:23:07;39.64;34.50;43.52;;
68599;Laerm;18038;50.166;18.908;2023-09-19T05:26:17;39.64;34.90;43.52;;
68599;Laerm;18038;50.166;18.908;2023-09-19T05:29:25;39.81;36.45;43.91;;
68599;Laerm;18038;50.166;18.908;2023-09-19T05:32:38;39.76;36.94;43.62;;
68599;Laerm;18038;50.166;18.908;2023-09-19T05:35:45;39.54;37.12;42.00;;
68599;Laerm;18038;50.166;18.908;2023-09-19T05:38:54;39.57;36.50;42.59;;
68599;Laerm;18038;50.166;18.908;2023-09-19T05:42:04;39.93;37.06;46.78;;
68599;Laerm;18038;50.166;18.908;2023-09-19T05:45:14;39.56;36.49;44.10;;
68599;Laerm;18038;50.166;18.908;2023-09-19T05:48:30;39.86;36.78;54.35;;
68599;Laerm;18038;50.166;18.908;2023-09-19T05:51:39;39.45;37.45;41.99;;
68599;Laerm;18038;50.166;18.908;2023-09-19T05:54:47;39.80;37.50;45.14;;
68599;Laerm;18038;50.166;18.908;2023-09-19T05:57:55;39.15;36.29;41.68;;
68599;Laerm;18038;50.166;18.908;2023-09-19T06:01:03;39.52;37.06;42.77;;
68599;Laerm;18038;50.166;18.908;2023-09-19T06:04:15;39.37;35.11;42.45;;
68599;Laerm;18038;50.166;18.908;2023-09-19T06:07:28;39.29;37.28;42.74;;
68599;Laerm;18038;50.166;18.908;2023-09-19T06:10:41;39.41;35.55;42.39;;
68599;Laerm;18038;50.166;18.908;2023-09-19T06:13:51;39.25;35.07;44.12;;
68599;Laerm;18038;50.166;18.908;2023-09-19T06:17:11;39.61;36.33;43.03;;
68599;Laerm;18038;50.166;18.908;2023-09-19T06:20:22;39.22;35.70;44.54;;
68599;Laerm;18038;50.166;18.908;2023-09-19T06:23:31;39.31;36.54;42.69;;
68599;Laerm;18038;50.166;18.908;2023-09-19T06:26:39;39.39;35.17;43.50;;
68599;Laerm;18038;50.166;18.908;2023-09-19T06:29:49;40.34;36.13;55.21;;
68599;Laerm;18038;50.166;18.908;2023-09-19T06:33:00;39.48;36.87;44.18;;
68599;Laerm;18038;50.166;18.908;2023-09-19T06:36:12;39.36;35.17;43.20;;
68599;Laerm;18038;50.166;18.908;2023-09-19T06:39:21;39.10;36.04;42.77;;
68599;Laerm;18038;50.166;18.908;2023-09-19T06:42:31;40.09;36.77;46.20;;
68599;Laerm;18038;50.166;18.908;2023-09-19T06:45:38;39.51;37.36;49.47;;
68599;Laerm;18038;50.166;18.908;2023-09-19T06:48:47;40.63;36.07;59.56;;
68599;Laerm;18038;50.166;18.908;2023-09-19T06:51:59;70.66;32.90;82.05;;
68599;Laerm;18038;50.166;18.908;2023-09-19T06:55:08;68.02;32.99;81.52;;
68599;Laerm;18038;50.166;18.908;2023-09-19T06:58:20;72.83;32.51;83.50;;
68599;Laerm;18038;50.166;18.908;2023-09-19T07:01:29;68.87;32.56;81.80;;
68599;Laerm;18038;50.166;18.908;2023-09-19T07:04:38;67.97;32.94;82.15;;
68599;Laerm;18038;50.166;18.908;2023-09-19T07:07:49;65.30;32.79;81.04;;
68599;Laerm;18038;50.166;18.908;2023-09-19T07:10:56;60.85;33.22;81.46;;
68599;Laerm;18038;50.166;18.908;2023-09-19T07:14:05;55.70;34.48;77.89;;
68599;Laerm;18038;50.166;18.908;2023-09-19T07:17:12;63.75;33.02;79.20;;
68599;Laerm;18038;50.166;18.908;2023-09-19T07:20:24;59.99;40.64;79.62;;
68599;Laerm;18038;50.166;18.908;2023-09-19T07:23:39;66.82;33.06;80.44;;
68599;Laerm;18038;50.166;18.908;2023-09-19T07:26:47;65.27;32.91;81.12;;
68599;Laerm;18038;50.166;18.908;2023-09-19T07:29:55;62.17;32.50;80.30;;
68599;Laerm;18038;50.166;18.908;2023-09-19T07:33:05;67.77;32.11;82.41;;
68599;Laerm;18038;50.166;18.908;2023-09-19T07:36:15;67.62;33.59;80.69;;
68599;Laerm;18038;50.166;18.908;2023-09-19T07:39:26;63.75;33.35;80.46;;
68599;Laerm;18038;50.166;18.908;2023-09-19T07:42:33;67.07;32.89;80.92;;
68599;Laerm;18038;50.166;18.908;2023-09-19T07:45:45;64.00;33.04;79.86;;
68599;Laerm;18038;50.166;18.908;2023-09-19T07:48:54;58.40;33.57;80.83;;
68599;Laerm;18038;50.166;18.908;2023-09-19T07:52:02;67.70;32.54;81.41;;
68599;Laerm;18038;50.166;18.908;2023-09-19T07:55:12;57.53;33.33;79.98;;
68599;Laerm;18038;50.166;18.908;2023-09-19T07:58:30;38.16;34.83;43.53;;
68599;Laerm;18038;50.166;18.908;2023-09-19T08:01:38;37.72;35.02;41.20;;
68599;Laerm;18038;50.166;18.908;2023-09-19T08:04:46;47.98;33.66;79.29;;
68599;Laerm;18038;50.166;18.908;2023-09-19T08:07:55;59.46;32.83;81.16;;
68599;Laerm;18038;50.166;18.908;2023-09-19T08:11:07;64.03;33.28;80.56;;
68599;Laerm;18038;50.166;18.908;2023-09-19T08:14:16;47.70;40.42;52.00;;
68599;Laerm;18038;50.166;18.908;2023-09-19T08:17:24;62.17;44.48;80.28;;
68599;Laerm;18038;50.166;18.908;2023-09-19T08:20:32;60.94;33.32;80.93;;
68599;Laerm;18038;50.166;18.908;2023-09-19T08:23:42;49.21;33.96;71.00;;
68599;Laerm;18038;50.166;18.908;2023-09-19T08:26:52;58.49;34.18;80.29;;
68599;Laerm;18038;50.166;18.908;2023-09-19T08:30:00;38.93;35.98;43.41;;
68599;Laerm;18038;50.166;18.908;2023-09-19T08:33:08;38.89;35.23;53.17;;
68599;Laerm;18038;50.166;18.908;2023-09-19T08:36:16;38.76;35.62;42.54;;
68599;Laerm;18038;50.166;18.908;2023-09-19T08:39:23;38.76;35.19;42.04;;
68599;Laerm;18038;50.166;18.908;2023-09-19T08:42:48;38.38;33.31;42.19;;
68599;Laerm;18038;50.166;18.908;2023-09-19T08:46:09;38.57;34.90;46.74;;
68599;Laerm;18038;50.166;18.908;2023-09-19T08:49:29;68.28;33.66;81.81;;
68599;Laerm;18038;50.166;18.908;2023-09-19T08:52:43;64.03;33.07;81.78;;
68599;Laerm;18038;50.166;18.908;2023-09-19T08:55:54;59.27;32.78;80.25;;
68599;Laerm;18038;50.166;18.908;2023-09-19T08:59:07;40.59;32.84;63.70;;
68599;Laerm;18038;50.166;18.908;2023-09-19T09:02:16;38.19;36.37;44.18;;
68599;Laerm;18038;50.166;18.908;2023-09-19T09:05:27;63.35;34.55;81.94;;
68599;Laerm;18038;50.166;18.908;2023-09-19T09:08:39;65.02;33.66;81.11;;
68599;Laerm;18038;50.166;18.908;2023-09-19T09:11:48;38.06;34.50;43.01;;
68599;Laerm;18038;50.166;18.908;2023-09-19T09:15:00;59.76;33.95;82.21;;
68599;Laerm;18038;50.166;18.908;2023-09-19T09:18:08;63.61;33.01;81.19;;
68599;Laerm;18038;50.166;18.908;2023-09-19T09:21:16;69.59;32.57;81.59;;
68599;Laerm;18038;50.166;18.908;2023-09-19T09:24:29;70.35;32.71;81.45;;
68599;Laerm;18038;50.166;18.908;2023-09-19T09:27:40;53.14;42.30;74.73;;
68599;Laerm;18038;50.166;18.908;2023-09-19T09:30:51;57.48;33.71;75.95;;
68599;Laerm;18038;50.166;18.908;2023-09-19T09:34:01;56.92;44.41;69.96;;
68599;Laerm;18038;50.166;18.908;2023-09-19T09:37:14;64.72;52.83;71.70;;
68599;Laerm;18038;50.166;18.908;2023-09-19T09:40:48;65.84;57.72;70.46;;
68599;Laerm;18038;50.166;18.908;2023-09-19T09:44:14;62.98;55.54;67.81;;
68599;Laerm;18038;50.166;18.908;2023-09-19T09:47:45;63.91;59.39;67.42;;
68599;Laerm;18038;50.166;18.908;2023-09-19T09:51:02;66.55;33.93;82.39;;
68599;Laerm;18038;50.166;18.908;2023-09-19T09:54:14;67.10;32.86;81.81;;
68599;Laerm;18038;50.166;18.908;2023-09-19T09:57:23;68.29;34.20;81.76;;
68599;Laerm;18038;50.166;18.908;2023-09-19T10:00:32;58.07;51.93;66.62;;
68599;Laerm;18038;50.166;18.908;2023-09-19T10:03:58;59.88;54.69;75.18;;
68599;Laerm;18038;50.166;18.908;2023-09-19T10:07:07;60.54;54.62;68.14;;
68599;Laerm;18038;50.166;18.908;2023-09-19T10:10:29;69.71;56.71;81.02;;
68599;Laerm;18038;50.166;18.908;2023-09-19T10:13:46;69.81;55.30;81.59;;
68599;Laerm;18038;50.166;18.908;2023-09-19T10:16:58;73.10;33.17;82.62;;
68599;Laerm;18038;50.166;18.908;2023-09-19T10:20:13;78.90;38.68;83.24;;
68599;Laerm;18038;50.166;18.908;2023-09-19T10:23:42;80.77;65.33;83.62;;
68599;Laerm;18038;50.166;18.908;2023-09-19T10:26:52;79.93;64.99;83.45;;
68599;Laerm;18038;50.166;18.908;2023-09-19T10:30:02;76.94;70.06;81.13;;
68599;Laerm;18038;50.166;18.908;2023-09-19T10:33:16;76.36;71.72;82.85;;
68599;Laerm;18038;50.166;18.908;2023-09-19T10:36:33;75.97;71.94;81.36;;
68599;Laerm;18038;50.166;18.908;2023-09-19T10:39:46;78.02;73.88;81.11;;
68599;Laerm;18038;50.166;18.908;2023-09-19T10:43:02;78.00;73.47;82.40;;
68599;Laerm;18038;50.166;18.908;2023-09-19T10:46:13;74.76;69.84;78.27;;
68599;Laerm;18038;50.166;18.908;2023-09-19T10:49:21;77.50;73.49;82.24;;
68599;Laerm;18038;50.166;18.908;2023-09-19T10:52:40;78.75;73.47;82.90;;
68599;Laerm;18038;50.166;18.908;2023-09-19T10:55:59;78.34;71.48;83.18;;
68599;Laerm;18038;50.166;18.908;2023-09-19T10:59:17;81.38;77.53;83.89;;
68599;Laerm;18038;50.166;18.908;2023-09-19T11:02:25;78.86;68.97;83.14;;
68599;Laerm;18038;50.166;18.908;2023-09-19T11:05:34;79.82;61.82;83.44;;
68599;Laerm;18038;50.166;18.908;2023-09-19T11:09:00;79.39;47.16;83.37;;
68599;Laerm;18038;50.166;18.908;2023-09-19T11:12:48;79.86;64.46;84.01;;
68599;Laerm;18038;50.166;18.908;2023-09-19T11:16:18;80.07;68.94;83.75;;
68599;Laerm;18038;50.166;18.908;2023-09-19T11:20:19;75.90;71.19;82.35;;
68599;Laerm;18038;50.166;18.908;2023-09-19T11:23:40;75.77;69.68;81.39;;
68599;Laerm;18038;50.166;18.908;2023-09-19T11:26:51;68.11;59.46;74.64;;
68599;Laerm;18038;50.166;18.908;2023-09-19T11:30:28;69.23;62.08;72.56;;
68599;Laerm;18038;50.166;18.908;2023-09-19T11:33:37;65.45;59.69;71.17;;
68599;Laerm;18038;50.166;18.908;2023-09-19T11:36:50;65.18;55.98;70.43;;
68599;Laerm;18038;50.166;18.908;2023-09-19T11:40:07;57.83;48.37;72.70;;
68599;Laerm;18038;50.166;18.908;2023-09-19T11:43:33;66.58;55.87;74.36;;
68599;Laerm;18038;50.166;18.908;2023-09-19T11:46:54;63.66;52.98;69.08;;
68599;Laerm;18038;50.166;18.908;2023-09-19T11:50:05;61.66;50.20;73.56;;
68599;Laerm;18038;50.166;18.908;2023-09-19T11:53:16;60.20;53.97;76.39;;
68599;Laerm;18038;50.166;18.908;2023-09-19T11:56:26;60.63;51.18;73.20;;
68599;Laerm;18038;50.166;18.908;2023-09-19T11:59:39;53.80;47.77;62.92;;
68599;Laerm;18038;50.166;18.908;2023-09-19T12:02:55;49.84;44.93;58.51;;
68599;Laerm;18038;50.166;18.908;2023-09-19T12:06:11;49.66;45.10;53.70;;
68599;Laerm;18038;50.166;18.908;2023-09-19T12:09:21;47.77;44.18;51.61;;
68599;Laerm;18038;50.166;18.908;2023-09-19T12:12:30;48.98;44.96;56.23;;
68599;Laerm;18038;50.166;18.908;2023-09-19T12:15:40;49.19;42.13;54.43;;
68599;Laerm;18038;50.166;18.908;2023-09-19T12:18:51;48.05;42.24;56.89;;
68599;Laerm;18038;50.166;18.908;2023-09-19T12:22:02;46.11;41.45;52.03;;
68599;Laerm;18038;50.166;18.908;2023-09-19T12:25:14;46.14;41.18;52.55;;
68599;Laerm;18038;50.166;18.908;2023-09-19T12:28:27;46.50;39.99;55.61;;
68599;Laerm;18038;50.166;18.908;2023-09-19T12:31:54;45.96;40.61;51.03;;
68599;Laerm;18038;50.166;18.908;2023-09-19T12:35:08;45.69;39.98;52.36;;
68599;Laerm;18038;50.166;18.908;2023-09-19T12:38:25;44.93;41.00;50.96;;
68599;Laerm;18038;50.166;18.908;2023-09-19T12:41:38;46.41;40.07;54.48;;
68599;Laerm;18038;50.166;18.908;2023-09-19T12:44:49;44.64;38.01;50.88;;
68599;Laerm;18038;50.166;18.908;2023-09-19T12:48:26;44.37;38.22;52.60;;
68599;Laerm;18038;50.166;18.908;2023-09-19T12:51:39;44.48;39.18;54.03;;
68599;Laerm;18038;50.166;18.908;2023-09-19T12:54:48;44.16;38.43;51.65;;
68599;Laerm;18038;50.166;18.908;2023-09-19T12:58:07;45.67;38.27;55.05;;
68599;Laerm;18038;50.166;18.908;2023-09-19T13:01:16;43.38;37.24;54.55;;
68599;Laerm;18038;50.166;18.908;2023-09-19T13:04:27;45.13;37.99;53.39;;
68599;Laerm;18038;50.166;18.908;2023-09-19T13:07:41;44.64;37.78;50.67;;
68599;Laerm;18038;50.166;18.908;2023-09-19T13:11:06;44.97;37.49;51.74;;
68599;Laerm;18038;50.166;18.908;2023-09-19T13:14:18;45.69;38.94;54.47;;
68599;Laerm;18038;50.166;18.908;2023-09-19T13:17:43;45.96;38.42;55.13;;
68599;Laerm;18038;50.166;18.908;2023-09-19T13:21:11;45.33;37.80;51.36;;
68599;Laerm;18038;50.166;18.908;2023-09-19T13:24:27;44.83;37.45;50.76;;
68599;Laerm;18038;50.166;18.908;2023-09-19T13:27:35;44.18;37.56;51.98;;
68599;Laerm;18038;50.166;18.908;2023-09-19T13:30:43;45.74;36.92;54.75;;
68599;Laerm;18038;50.166;18.908;2023-09-19T13:33:52;44.79;36.77;53.14;;
68599;Laerm;18038;50.166;18.908;2023-09-19T13:37:03;45.55;38.02;55.26;;
68599;Laerm;18038;50.166;18.908;2023-09-19T13:40:14;45.72;38.72;53.17;;
68599;Laerm;18038;50.166;18.908;2023-09-19T13:43:22;56.42;41.47;63.87;;
68599;Laerm;18038;50.166;18.908;2023-09-19T13:46:30;48.78;42.95;52.96;;
68599;Laerm;18038;50.166;18.908;2023-09-19T13:49:40;49.82;46.12;53.57;;
68599;Laerm;18038;50.166;18.908;2023-09-19T13:52:51;51.11;46.01;57.20;;
68599;Laerm;18038;50.166;18.908;2023-09-19T13:55:59;64.12;37.19;81.43;;
68599;Laerm;18038;50.166;18.908;2023-09-19T13:59:06;63.27;36.20;80.21;;
68599;Laerm;18038;50.166;18.908;2023-09-19T14:02:14;52.34;46.95;55.98;;
68599;Laerm;18038;50.166;18.908;2023-09-19T14:05:22;54.11;50.03;57.40;;
68599;Laerm;18038;50.166;18.908;2023-09-19T14:08:36;54.20;49.45;58.97;;
68599;Laerm;18038;50.166;18.908;2023-09-19T14:11:43;67.17;33.83;81.62;;
68599;Laerm;18038;50.166;18.908;2023-09-19T14:14:52;67.58;34.62;82.28;;
68599;Laerm;18038;50.166;18.908;2023-09-19T14:18:00;68.69;35.68;81.86;;
68599;Laerm;18038;50.166;18.908;2023-09-19T14:21:09;62.96;53.84;74.52;;
68599;Laerm;18038;50.166;18.908;2023-09-19T14:24:19;72.55;32.73;82.77;;
68599;Laerm;18038;50.166;18.908;2023-09-19T14:27:34;73.86;32.33;82.05;;
68599;Laerm;18038;50.166;18.908;2023-09-19T14:30:42;72.45;33.92;82.28;;
68599;Laerm;18038;50.166;18.908;2023-09-19T14:33:54;77.13;36.61;82.52;;
68599;Laerm;18038;50.166;18.908;2023-09-19T14:37:03;73.37;33.14;82.64;;
68599;Laerm;18038;50.166;18.908;2023-09-19T14:40:14;69.85;32.89;82.52;;
68599;Laerm;18038;50.166;18.908;2023-09-19T14:43:26;69.15;34.98;82.32;;
68599;Laerm;18038;50.166;18.908;2023-09-19T14:46:36;78.58;33.62;83.32;;
68599;Laerm;18038;50.166;18.908;2023-09-19T14:49:44;79.38;62.82;83.10;;
68599;Laerm;18038;50.166;18.908;2023-09-19T14:53:13;78.54;71.30;83.36;;
68599;Laerm;18038;50.166;18.908;2023-09-19T14:56:23;77.60;63.19;83.17;;
68599;Laerm;18038;50.166;18.908;2023-09-19T14:59:46;57.62;33.06;77.01;;
68599;Laerm;18038;50.166;18.908;2023-09-19T15:03:08;37.63;33.45;50.37;;
68599;Laerm;18038;50.166;18.908;2023-09-19T15:06:19;76.11;33.61;83.25;;
68599;Laerm;18038;50.166;18.908;2023-09-19T15:09:28;76.22;34.20;83.62;;
68599;Laerm;18038;50.166;18.908;2023-09-19T15:12:41;78.79;34.24;83.42;;
68599;Laerm;18038;50.166;18.908;2023-09-19T15:15:48;56.61;33.35;76.40;;
68599;Laerm;18038;50.166;18.908;2023-09-19T15:18:56;37.63;33.73;44.99;;
68599;Laerm;18038;50.166;18.908;2023-09-19T15:22:04;38.14;35.80;43.41;;
68599;Laerm;18038;50.166;18.908;2023-09-19T15:25:14;38.96;36.78;47.06;;
68599;Laerm;18038;50.166;18.908;2023-09-19T15:28:24;38.36;36.16;42.20;;
68599;Laerm;18038;50.166;18.908;2023-09-19T15:31:33;38.43;35.27;44.25;;
68599;Laerm;18038;50.166;18.908;2023-09-19T15:34:51;38.73;36.69;41.84;;
68599;Laerm;18038;50.166;18.908;2023-09-19T15:38:00;38.52;36.80;41.96;;
68599;Laerm;18038;50.166;18.908;2023-09-19T15:41:12;38.72;37.06;41.91;;
68599;Laerm;18038;50.166;18.908;2023-09-19T15:44:23;39.07;35.78;42.54;;
68599;Laerm;18038;50.166;18.908;2023-09-19T15:47:31;39.05;36.83;41.90;;
68599;Laerm;18038;50.166;18.908;2023-09-19T15:50:40;38.55;37.08;41.63;;
68599;Laerm;18038;50.166;18.908;2023-09-19T15:53:51;38.72;36.56;43.77;;
68599;Laerm;18038;50.166;18.908;2023-09-19T15:57:00;38.88;36.94;42.56;;
68599;Laerm;18038;50.166;18.908;2023-09-19T16:00:12;38.95;36.49;43.37;;
68599;Laerm;18038;50.166;18.908;2023-09-19T16:03:22;38.90;37.25;43.56;;
68599;Laerm;18038;50.166;18.908;2023-09-19T16:06:31;39.14;37.04;45.94;;
68599;Laerm;18038;50.166;18.908;2023-09-19T16:09:40;38.59;35.61;41.81;;
68599;Laerm;18038;50.166;18.908;2023-09-19T16:12:48;38.60;37.00;41.88;;
68599;Laerm;18038;50.166;18.908;2023-09-19T16:15:58;38.92;36.52;46.77;;
68599;Laerm;18038;50.166;18.908;2023-09-19T16:19:06;38.57;37.00;41.49;;
68599;Laerm;18038;50.166;18.908;2023-09-19T16:22:16;64.61;33.13;82.34;;
68599;Laerm;18038;50.166;18.908;2023-09-19T16:25:23;72.98;41.72;82.17;;
68599;Laerm;18038;50.166;18.908;2023-09-19T16:28:32;68.42;31.90;82.16;;
68599;Laerm;18038;50.166;18.908;2023-09-19T16:31:43;39.01;34.32;42.26;;
68599;Laerm;18038;50.166;18.908;2023-09-19T16:34:51;39.12;36.94;44.45;;
68599;Laerm;18038;50.166;18.908;2023-09-19T16:38:00;39.13;37.34;43.79;;
68599;Laerm;18038;50.166;18.908;2023-09-19T16:41:17;39.10;37.42;41.76;;
68599;Laerm;18038;50.166;18.908;2023-09-19T16:44:24;38.94;37.38;43.60;;
68599;Laerm;18038;50.166;18.908;2023-09-19T16:47:36;38.95;37.05;41.77;;
68599;Laerm;18038;50.166;18.908;2023-09-19T16:50:43;39.02;37.42;41.24;;
68599;Laerm;18038;50.166;18.908;2023-09-19T16:53:51;39.05;37.58;51.63;;
68599;Laerm;18038;50.166;18.908;2023-09-19T16:56:59;38.91;35.92;43.53;;
68599;Laerm;18038;50.166;18.908;2023-09-19T17:00:10;39.06;37.31;45.80;;
68599;Laerm;18038;50.166;18.908;2023-09-19T17:03:21;38.89;36.44;41.47;;
68599;Laerm;18038;50.166;18.908;2023-09-19T17:06:30;38.65;36.58;41.37;;
68599;Laerm;18038;50.166;18.908;2023-09-19T17:09:40;38.95;36.09;41.96;;
68599;Laerm;18038;50.166;18.908;2023-09-19T17:12:49;38.95;37.48;41.20;;
68599;Laerm;18038;50.166;18.908;2023-09-19T17:16:05;39.29;37.57;41.70;;
68599;Laerm;18038;50.166;18.908;2023-09-19T17:19:17;39.03;37.32;41.28;;
68599;Laerm;18038;50.166;18.908;2023-09-19T17:22:26;39.07;36.24;42.44;;
68599;Laerm;18038;50.166;18.908;2023-09-19T17:25:35;39.01;37.42;40.89;;
68599;Laerm;18038;50.166;18.908;2023-09-19T17:28:42;39.01;37.46;40.70;;
68599;Laerm;18038;50.166;18.908;2023-09-19T17:31:58;39.21;36.17;44.54;;
68599;Laerm;18038;50.166;18.908;2023-09-19T17:35:11;41.39;37.64;60.63;;
68599;Laerm;18038;50.166;18.908;2023-09-19T17:38:23;38.97;37.21;41.55;;
68599;Laerm;18038;50.166;18.908;2023-09-19T17:41:30;38.84;34.52;41.94;;